Creswell, Oregon
Current Conditions -  °F | °C
As of 5:54 PM on Thursday 20 Nov 2014 (Local Time) from KEUG Reporting Station
Overcast Overcast  
Wind Chill: 50°   Ceiling: 6000
Heat Index: 50°   Visibility: 8mi
Dew Point: 49°   Wind: 0mph
Humidity: 96%   Direction: NA
Pressure: 29.96"   Gusts: NA
Location:  43.92°N, 123.02°W
Report Text: KEUG 210154Z 00000KT 8SM OVC060 10/09 A2996 RMK AO2 SLP147 T01000094
Loading
Personal Weather Stations






























Interactive Weather Map New forecast layout! Learn more

10-Day Weather Forecast

Advertisements
Track Severe Weather on mobile